createdAt,value
2018-11-03T00:00:32.037Z,7.03
2018-11-03T00:01:36.469Z,6.77
2018-11-03T00:02:40.816Z,7.33
2018-11-03T00:03:45.396Z,6.73
2018-11-03T00:04:49.962Z,6.27
2018-11-03T00:05:54.139Z,6.33
2018-11-03T00:06:58.458Z,6.53
2018-11-03T00:08:02.612Z,6.43
2018-11-03T00:09:08.806Z,6.83
2018-11-03T00:10:12.906Z,6.50
2018-11-03T00:11:17.037Z,6.20
2018-11-03T00:12:21.420Z,6.70
2018-11-03T00:13:25.521Z,6.78
2018-11-03T00:14:29.637Z,6.90
2018-11-03T00:15:34.148Z,6.58
2018-11-03T00:16:38.576Z,7.10
2018-11-03T00:17:42.902Z,6.35
2018-11-03T00:18:46.974Z,6.50
2018-11-03T00:19:51.180Z,6.97
2018-11-03T00:20:55.352Z,6.07
2018-11-03T00:21:59.534Z,5.77
2018-11-03T00:23:03.764Z,6.27
2018-11-03T00:24:08.279Z,5.93
2018-11-03T00:25:12.930Z,6.27
2018-11-03T00:26:17.072Z,6.05
2018-11-03T00:27:21.242Z,6.57
2018-11-03T00:28:25.736Z,6.37
2018-11-03T00:29:29.860Z,6.62
2018-11-03T00:30:33.944Z,6.43
2018-11-03T00:31:38.067Z,6.47
2018-11-03T00:32:42.422Z,5.97
2018-11-03T00:33:47.047Z,6.58
2018-11-03T00:34:51.092Z,7.60
2018-11-03T00:35:55.247Z,6.60
2018-11-03T00:36:59.378Z,6.62
2018-11-03T00:38:03.614Z,6.12
2018-11-03T00:39:09.944Z,5.92
2018-11-03T00:40:14.782Z,6.60
2018-11-03T00:41:18.910Z,5.63
2018-11-03T00:42:23.041Z,6.17
2018-11-03T00:43:27.165Z,6.20
2018-11-03T00:44:31.218Z,6.30
2018-11-03T00:45:35.275Z,6.40
2018-11-03T00:46:39.546Z,6.22
2018-11-03T00:47:44.336Z,6.30
2018-11-03T00:48:48.420Z,6.37
2018-11-03T00:49:52.612Z,7.00
2018-11-03T00:50:56.694Z,6.60
2018-11-03T00:52:00.905Z,6.12
2018-11-03T00:53:05.427Z,6.30
2018-11-03T00:54:09.550Z,6.45
2018-11-03T00:55:13.972Z,5.87
2018-11-03T00:56:18.013Z,6.25
2018-11-03T00:57:22.110Z,5.70
2018-11-03T00:58:26.158Z,5.90
2018-11-03T00:59:30.206Z,6.43
2018-11-03T01:00:34.342Z,6.73
2018-11-03T01:01:38.432Z,6.85
2018-11-03T01:02:43.813Z,6.20
2018-11-03T01:03:47.924Z,6.30
2018-11-03T01:04:52.257Z,6.00
2018-11-03T01:05:56.391Z,6.17
2018-11-03T01:07:00.395Z,6.50
2018-11-03T01:08:04.768Z,6.10
2018-11-03T01:09:09.094Z,6.60
2018-11-03T01:10:13.245Z,5.93
2018-11-03T01:11:17.420Z,7.00
2018-11-03T01:12:21.518Z,6.20
2018-11-03T01:13:25.675Z,7.25
2018-11-03T01:14:29.813Z,6.28
2018-11-03T01:15:33.930Z,6.28
2018-11-03T01:16:38.077Z,6.10
2018-11-03T01:17:42.218Z,6.47
2018-11-03T01:18:46.273Z,6.20
2018-11-03T01:19:50.460Z,6.70
2018-11-03T01:20:54.573Z,6.00
2018-11-03T01:21:58.650Z,6.20
2018-11-03T01:23:02.702Z,6.70
2018-11-03T01:24:07.226Z,6.37
2018-11-03T01:25:11.433Z,5.47
2018-11-03T01:26:15.572Z,5.57
2018-11-03T01:27:19.613Z,5.93
2018-11-03T01:28:23.653Z,6.08
2018-11-03T01:29:27.808Z,5.87
2018-11-03T01:30:31.932Z,5.33
2018-11-03T01:31:36.020Z,5.63
2018-11-03T01:32:40.164Z,6.22
2018-11-03T01:33:44.224Z,6.40
2018-11-03T01:34:48.378Z,6.50
2018-11-03T01:35:52.426Z,7.28
2018-11-03T01:36:56.615Z,7.30
2018-11-03T01:38:00.716Z,7.08
2018-11-03T01:39:07.458Z,6.33
2018-11-03T01:40:12.626Z,6.63
2018-11-03T01:41:16.755Z,6.60
2018-11-03T01:42:20.825Z,7.00
2018-11-03T01:43:24.976Z,5.93
2018-11-03T01:44:29.018Z,6.27
2018-11-03T01:45:33.176Z,5.43
2018-11-03T01:46:37.260Z,6.07
2018-11-03T01:47:41.292Z,6.80
2018-11-03T01:48:45.370Z,6.55
2018-11-03T01:49:49.533Z,6.77
2018-11-03T01:50:53.635Z,6.12
2018-11-03T01:51:57.808Z,6.80
2018-11-03T01:53:01.912Z,6.58
2018-11-03T01:54:06.017Z,6.55
2018-11-03T01:55:10.091Z,6.28
2018-11-03T01:56:14.156Z,5.90
2018-11-03T01:57:18.239Z,6.75
2018-11-03T01:58:22.303Z,6.60
2018-11-03T01:59:26.402Z,7.10
2018-11-03T02:00:30.512Z,7.50
2018-11-03T02:01:34.735Z,6.63
2018-11-03T02:02:38.821Z,6.80
2018-11-03T02:03:42.915Z,6.63
2018-11-03T02:04:46.983Z,6.40
2018-11-03T02:05:51.111Z,7.33
2018-11-03T02:06:55.248Z,6.87
2018-11-03T02:07:59.409Z,6.90
2018-11-03T02:09:04.135Z,6.60
2018-11-03T02:10:09.244Z,5.83
2018-11-03T02:11:13.370Z,6.20
2018-11-03T02:12:17.479Z,5.70
2018-11-03T02:13:21.689Z,6.55
2018-11-03T02:14:25.829Z,5.85
2018-11-03T02:15:29.919Z,5.87
2018-11-03T02:16:33.963Z,5.28
2018-11-03T02:17:38.240Z,6.50
2018-11-03T02:18:42.648Z,5.95
2018-11-03T02:19:52.814Z,6.00
2018-11-03T02:21:02.892Z,5.83
2018-11-03T02:22:07.061Z,6.07
2018-11-03T02:23:11.123Z,6.00
2018-11-03T02:24:15.214Z,5.80
2018-11-03T02:25:19.346Z,6.37
2018-11-03T02:26:23.476Z,6.43
2018-11-03T02:27:27.535Z,6.22
2018-11-03T02:28:31.676Z,6.33
2018-11-03T02:29:35.740Z,6.75
2018-11-03T02:30:39.897Z,6.35
2018-11-03T02:31:44.002Z,6.58
2018-11-03T02:32:48.105Z,6.05
2018-11-03T02:33:52.212Z,6.07
2018-11-03T02:34:56.236Z,6.20
2018-11-03T02:36:00.435Z,6.00
2018-11-03T02:37:04.775Z,6.53
2018-11-03T02:38:08.914Z,6.40
2018-11-03T02:39:12.962Z,6.07
2018-11-03T02:40:17.018Z,6.30
2018-11-03T02:41:21.147Z,6.03
2018-11-03T02:42:25.264Z,6.53
2018-11-03T02:43:29.410Z,5.83
2018-11-03T02:44:33.493Z,5.87
2018-11-03T02:45:37.624Z,6.22
2018-11-03T02:46:41.726Z,6.33
2018-11-03T02:47:45.825Z,6.08
2018-11-03T02:48:49.969Z,5.87
2018-11-03T02:49:54.058Z,6.85
2018-11-03T02:50:58.142Z,6.37
2018-11-03T02:52:02.228Z,6.60
2018-11-03T02:53:06.325Z,5.92
2018-11-03T02:54:10.378Z,5.77
2018-11-03T02:55:14.586Z,5.40
2018-11-03T02:56:18.676Z,6.00
2018-11-03T02:57:22.788Z,6.30
2018-11-03T02:58:26.900Z,6.37
2018-11-03T02:59:30.986Z,6.35
2018-11-03T03:00:35.150Z,6.25
2018-11-03T03:01:39.290Z,6.10
2018-11-03T03:02:43.372Z,6.20
2018-11-03T03:03:47.508Z,5.57
2018-11-03T03:04:51.598Z,6.28
2018-11-03T03:05:55.661Z,6.07
2018-11-03T03:06:59.796Z,5.78
2018-11-03T03:08:03.876Z,6.30
2018-11-03T03:09:08.154Z,6.65
2018-11-03T03:10:13.059Z,6.35
2018-11-03T03:11:17.206Z,6.15
2018-11-03T03:12:21.347Z,6.55
2018-11-03T03:13:25.369Z,5.92
2018-11-03T03:14:29.514Z,6.05
2018-11-03T03:15:33.591Z,6.20
2018-11-03T03:16:37.729Z,5.33
2018-11-03T03:17:42.206Z,5.87
2018-11-03T03:18:46.440Z,5.93
2018-11-03T03:19:50.707Z,6.20
2018-11-03T03:20:55.671Z,5.70
2018-11-03T03:21:59.730Z,6.47
2018-11-03T03:23:04.075Z,6.08
2018-11-03T03:24:08.232Z,5.80
2018-11-03T03:25:12.492Z,6.30
2018-11-03T03:26:16.577Z,5.90
2018-11-03T03:27:20.737Z,5.45
2018-11-03T03:28:25.559Z,6.00
2018-11-03T03:29:29.835Z,5.67
2018-11-03T03:30:33.822Z,5.97
2018-11-03T03:31:37.868Z,6.00
2018-11-03T03:32:41.972Z,5.97
2018-11-03T03:33:46.109Z,5.90
2018-11-03T03:34:50.166Z,6.33
2018-11-03T03:35:54.224Z,5.90
2018-11-03T03:36:59.237Z,6.23
2018-11-03T03:38:03.300Z,6.50
2018-11-03T03:39:09.211Z,6.40
2018-11-03T03:40:13.321Z,5.87
2018-11-03T03:41:17.409Z,6.10
2018-11-03T03:42:21.515Z,6.17
2018-11-03T03:43:25.674Z,5.53
2018-11-03T03:44:29.793Z,6.43
2018-11-03T03:45:33.842Z,5.63
2018-11-03T03:46:38.010Z,6.05
2018-11-03T03:47:42.205Z,5.28
2018-11-03T03:48:46.274Z,5.70
2018-11-03T03:49:50.345Z,5.60
2018-11-03T03:50:54.474Z,5.60
2018-11-03T03:51:58.754Z,7.62
2018-11-03T03:53:03.053Z,5.97
2018-11-03T03:54:07.126Z,6.03
2018-11-03T03:55:11.248Z,6.10
2018-11-03T03:56:15.314Z,5.87
2018-11-03T03:57:19.361Z,6.50
2018-11-03T03:58:23.479Z,5.62
2018-11-03T03:59:27.535Z,6.77
2018-11-03T04:00:31.692Z,5.60
2018-11-03T04:01:35.760Z,6.13
2018-11-03T04:02:40.412Z,6.13
2018-11-03T04:03:44.547Z,5.90
2018-11-03T04:04:48.678Z,5.50
2018-11-03T04:05:52.734Z,5.67
2018-11-03T04:06:56.907Z,5.50
2018-11-03T04:08:00.985Z,6.15
2018-11-03T04:09:06.777Z,5.75
2018-11-03T04:10:11.037Z,5.83
2018-11-03T04:11:15.136Z,6.15
2018-11-03T04:12:19.176Z,5.70
2018-11-03T04:13:23.308Z,5.20
2018-11-03T04:14:27.402Z,6.20
2018-11-03T04:15:31.651Z,5.33
2018-11-03T04:16:35.689Z,5.83
2018-11-03T04:17:39.779Z,5.67
2018-11-03T04:18:44.086Z,5.60
2018-11-03T04:19:48.271Z,5.83
2018-11-03T04:20:52.314Z,5.80
2018-11-03T04:21:56.407Z,6.17
2018-11-03T04:23:00.510Z,5.65
2018-11-03T04:24:04.687Z,6.17
2018-11-03T04:25:08.809Z,5.40
2018-11-03T04:26:12.981Z,6.53
2018-11-03T04:27:17.085Z,5.70
2018-11-03T04:28:21.223Z,5.62
2018-11-03T04:29:25.286Z,6.12
2018-11-03T04:30:29.418Z,5.58
2018-11-03T04:31:33.473Z,5.87
2018-11-03T04:32:37.611Z,5.50
2018-11-03T04:33:41.652Z,5.42
2018-11-03T04:34:45.740Z,5.73
2018-11-03T04:35:49.849Z,5.50
2018-11-03T04:36:53.982Z,6.10
2018-11-03T04:37:58.035Z,5.83
2018-11-03T04:39:02.269Z,5.60
2018-11-03T04:40:07.628Z,5.50
2018-11-03T04:41:11.728Z,5.67
2018-11-03T04:42:15.832Z,5.63
2018-11-03T04:43:19.900Z,6.00
2018-11-03T04:44:23.968Z,6.00
2018-11-03T04:45:28.167Z,5.17
2018-11-03T04:46:32.208Z,6.10
2018-11-03T04:47:36.724Z,5.17
2018-11-03T04:48:40.977Z,5.95
2018-11-03T04:49:45.090Z,5.83
2018-11-03T04:50:49.186Z,5.40
2018-11-03T04:51:53.380Z,5.95
2018-11-03T04:52:57.487Z,6.40
2018-11-03T04:54:01.752Z,5.70
2018-11-03T04:55:06.371Z,5.47
2018-11-03T04:56:10.419Z,5.12
2018-11-03T04:57:14.536Z,6.03
2018-11-03T04:58:18.637Z,6.27
2018-11-03T04:59:22.696Z,5.97
2018-11-03T05:00:26.804Z,5.70
2018-11-03T05:01:30.846Z,5.37
2018-11-03T05:02:34.992Z,5.95
2018-11-03T05:03:39.160Z,5.57
2018-11-03T05:04:43.372Z,5.60
2018-11-03T05:05:47.509Z,5.20
2018-11-03T05:06:51.680Z,5.37
2018-11-03T05:07:55.898Z,5.90
2018-11-03T05:09:00.063Z,5.40
2018-11-03T05:10:04.497Z,5.10
2018-11-03T05:11:08.581Z,5.12
2018-11-03T05:12:12.798Z,5.70
2018-11-03T05:13:16.937Z,5.75
2018-11-03T05:14:21.014Z,5.47
2018-11-03T05:15:25.135Z,5.23
2018-11-03T05:16:29.192Z,5.87
2018-11-03T05:17:33.194Z,6.20
2018-11-03T05:18:37.328Z,5.60
2018-11-03T05:19:41.484Z,6.05
2018-11-03T05:20:45.628Z,5.43
2018-11-03T05:21:49.774Z,5.40
2018-11-03T05:22:53.896Z,5.60
2018-11-03T05:23:58.022Z,5.08
2018-11-03T05:25:02.149Z,5.50
2018-11-03T05:26:06.502Z,5.30
2018-11-03T05:27:10.668Z,5.60
2018-11-03T05:28:14.742Z,5.10
2018-11-03T05:29:18.833Z,6.00
2018-11-03T05:30:22.887Z,5.15
2018-11-03T05:31:27.032Z,6.20
2018-11-03T05:32:31.138Z,5.50
2018-11-03T05:33:35.216Z,5.45
2018-11-03T05:34:39.304Z,5.37
2018-11-03T05:35:43.354Z,5.25
2018-11-03T05:36:47.552Z,5.28
2018-11-03T05:37:51.629Z,5.47
2018-11-03T05:38:55.707Z,5.50
2018-11-03T05:39:59.746Z,4.87
2018-11-03T05:41:03.876Z,5.63
2018-11-03T05:42:08.020Z,5.17
2018-11-03T05:43:12.040Z,5.13
2018-11-03T05:44:16.210Z,4.90
2018-11-03T05:45:20.426Z,5.13
2018-11-03T05:46:24.531Z,5.27
2018-11-03T05:47:28.584Z,5.20
2018-11-03T05:48:32.703Z,5.87
2018-11-03T05:49:36.845Z,5.55
2018-11-03T05:50:40.958Z,5.50
2018-11-03T05:51:45.091Z,5.03
2018-11-03T05:52:49.257Z,5.28
2018-11-03T05:53:53.468Z,5.12
2018-11-03T05:54:57.670Z,5.17
2018-11-03T05:56:01.803Z,5.13
2018-11-03T05:57:06.106Z,4.93
2018-11-03T05:58:10.179Z,5.47
2018-11-03T05:59:14.455Z,5.20
2018-11-03T06:00:18.524Z,4.67
2018-11-03T06:01:22.570Z,5.17
2018-11-03T06:02:26.674Z,4.95
2018-11-03T06:03:30.707Z,4.80
2018-11-03T06:04:34.764Z,4.90
2018-11-03T06:05:38.856Z,5.07
2018-11-03T06:06:43.044Z,5.27
2018-11-03T06:07:47.188Z,5.45
2018-11-03T06:08:51.346Z,5.33
2018-11-03T06:09:55.375Z,4.97
2018-11-03T06:10:59.518Z,5.35
2018-11-03T06:12:03.798Z,4.85
2018-11-03T06:13:07.894Z,5.28
2018-11-03T06:14:12.035Z,5.55
2018-11-03T06:15:16.167Z,4.35
2018-11-03T06:16:20.267Z,4.90
2018-11-03T06:17:24.393Z,4.83
2018-11-03T06:18:28.506Z,4.83
2018-11-03T06:19:32.522Z,5.10
2018-11-03T06:20:36.632Z,5.23
2018-11-03T06:21:40.700Z,5.00
2018-11-03T06:22:44.895Z,4.60
2018-11-03T06:23:48.976Z,5.00
2018-11-03T06:24:53.183Z,5.70
2018-11-03T06:25:57.266Z,5.83
2018-11-03T06:27:01.332Z,5.10
2018-11-03T06:28:05.516Z,4.95
2018-11-03T06:29:09.453Z,4.40
2018-11-03T06:30:13.607Z,5.12
2018-11-03T06:31:18.026Z,4.97
2018-11-03T06:32:22.208Z,5.70
2018-11-03T06:33:26.303Z,5.40
2018-11-03T06:34:30.358Z,5.00
2018-11-03T06:35:34.431Z,5.27
2018-11-03T06:36:38.623Z,5.63
2018-11-03T06:37:42.672Z,4.97
2018-11-03T06:38:46.915Z,4.73
2018-11-03T06:39:50.890Z,4.80
2018-11-03T06:40:55.068Z,4.90
2018-11-03T06:41:59.162Z,5.20
2018-11-03T06:43:03.214Z,4.77
2018-11-03T06:44:07.326Z,5.00
2018-11-03T06:45:11.528Z,5.13
2018-11-03T06:46:15.652Z,4.85
2018-11-03T06:47:20.124Z,5.00
2018-11-03T06:48:24.108Z,5.87
2018-11-03T06:49:28.173Z,5.20
2018-11-03T06:50:32.383Z,5.08
2018-11-03T06:51:36.529Z,6.78
2018-11-03T06:52:40.641Z,4.78
2018-11-03T06:53:44.712Z,4.67
2018-11-03T06:54:48.812Z,5.77
2018-11-03T06:55:52.942Z,4.93
2018-11-03T06:56:57.016Z,5.10
2018-11-03T06:58:01.214Z,5.00
2018-11-03T06:59:05.294Z,5.83
2018-11-03T07:00:10.341Z,5.67
2018-11-03T07:01:14.444Z,5.57
2018-11-03T07:02:18.536Z,5.40
2018-11-03T07:03:22.638Z,4.93
2018-11-03T07:04:26.758Z,5.40
2018-11-03T07:05:30.893Z,5.90
2018-11-03T07:06:34.952Z,5.50
2018-11-03T07:07:39.277Z,5.37
2018-11-03T07:08:43.420Z,5.47
2018-11-03T07:09:47.469Z,5.40
2018-11-03T07:10:51.545Z,4.80
2018-11-03T07:11:55.707Z,6.42
2018-11-03T07:12:59.862Z,5.35
2018-11-03T07:14:03.835Z,5.50
2018-11-03T07:15:07.938Z,6.00
2018-11-03T07:16:12.033Z,5.03
2018-11-03T07:17:16.955Z,5.10
2018-11-03T07:18:21.000Z,5.20
2018-11-03T07:19:25.088Z,5.08
2018-11-03T07:20:29.153Z,4.85
2018-11-03T07:21:33.536Z,5.40
2018-11-03T07:22:37.615Z,5.17
2018-11-03T07:23:41.818Z,4.87
2018-11-03T07:24:45.871Z,5.10
2018-11-03T07:25:50.033Z,4.97
2018-11-03T07:26:54.085Z,4.83
2018-11-03T07:27:58.172Z,4.53
2018-11-03T07:29:02.200Z,4.85
2018-11-03T07:30:08.553Z,4.92
2018-11-03T07:31:12.626Z,4.80
2018-11-03T07:32:16.672Z,4.65
2018-11-03T07:33:20.818Z,5.20
2018-11-03T07:34:24.920Z,4.70
2018-11-03T07:35:29.077Z,4.77
2018-11-03T07:36:33.281Z,5.63
2018-11-03T07:37:37.694Z,4.90
2018-11-03T07:38:41.924Z,4.70
2018-11-03T07:39:52.528Z,5.60
2018-11-03T07:40:56.713Z,4.93
2018-11-03T07:42:00.703Z,4.97
2018-11-03T07:43:05.044Z,4.60
2018-11-03T07:44:09.318Z,4.85
2018-11-03T07:45:13.398Z,5.33
2018-11-03T07:46:17.577Z,5.50
2018-11-03T07:47:21.604Z,4.87
2018-11-03T07:48:25.758Z,5.15
2018-11-03T07:49:29.981Z,5.15
2018-11-03T07:50:33.962Z,4.62
2018-11-03T07:51:38.095Z,4.90
2018-11-03T07:52:42.692Z,6.00
2018-11-03T07:53:48.001Z,4.97
2018-11-03T07:54:52.179Z,4.73
2018-11-03T07:55:56.197Z,5.60
2018-11-03T07:57:00.278Z,4.87
2018-11-03T07:58:04.944Z,5.03
2018-11-03T07:59:09.036Z,4.80
2018-11-03T08:00:13.711Z,5.10
2018-11-03T08:01:17.781Z,4.78
2018-11-03T08:02:21.896Z,5.33
2018-11-03T08:03:25.974Z,5.40
2018-11-03T08:04:30.078Z,4.90
2018-11-03T08:05:34.318Z,5.07
2018-11-03T08:06:38.630Z,5.30
2018-11-03T08:07:42.702Z,5.08
2018-11-03T08:08:47.024Z,4.72
2018-11-03T08:09:51.117Z,7.47
2018-11-03T08:10:55.266Z,4.83
2018-11-03T08:11:59.329Z,5.78
2018-11-03T08:13:03.429Z,5.30
2018-11-03T08:14:07.553Z,4.97
2018-11-03T08:15:12.125Z,5.35
2018-11-03T08:16:16.247Z,5.10
2018-11-03T08:17:20.428Z,5.40
2018-11-03T08:18:24.566Z,5.27
2018-11-03T08:19:28.786Z,5.47
2018-11-03T08:20:32.952Z,5.00
2018-11-03T08:21:37.255Z,5.50
2018-11-03T08:22:41.301Z,5.20
2018-11-03T08:23:45.441Z,5.50
2018-11-03T08:24:49.555Z,5.10
2018-11-03T08:25:53.639Z,5.17
2018-11-03T08:26:57.726Z,5.05
2018-11-03T08:28:01.920Z,5.40
2018-11-03T08:29:06.018Z,5.35
2018-11-03T08:30:12.306Z,5.20
2018-11-03T08:31:16.752Z,5.30
2018-11-03T08:32:20.886Z,5.67
2018-11-03T08:33:25.106Z,5.77
2018-11-03T08:34:29.393Z,5.70
2018-11-03T08:35:33.487Z,5.07
2018-11-03T08:36:37.680Z,5.27
2018-11-03T08:37:41.752Z,5.10
2018-11-03T08:38:45.830Z,5.42
2018-11-03T08:39:49.948Z,5.10
2018-11-03T08:40:54.146Z,5.70
2018-11-03T08:41:58.288Z,5.20
2018-11-03T08:43:02.533Z,5.70
2018-11-03T08:44:06.802Z,5.30
2018-11-03T08:45:11.345Z,5.17
2018-11-03T08:46:15.457Z,5.03
2018-11-03T08:47:19.642Z,4.78
2018-11-03T08:48:23.930Z,5.25
2018-11-03T08:49:28.172Z,5.40
2018-11-03T08:50:32.244Z,6.22
2018-11-03T08:51:36.504Z,5.45
2018-11-03T08:52:40.730Z,5.10
2018-11-03T08:53:44.771Z,5.73
2018-11-03T08:54:48.845Z,5.40
2018-11-03T08:55:52.944Z,5.70
2018-11-03T08:56:57.026Z,5.60
2018-11-03T08:58:01.180Z,5.17
2018-11-03T08:59:05.693Z,5.50
2018-11-03T09:00:11.716Z,6.67
2018-11-03T09:01:16.030Z,5.80
2018-11-03T09:02:20.539Z,5.23
2018-11-03T09:03:24.613Z,5.33
2018-11-03T09:04:28.781Z,5.80
2018-11-03T09:05:32.898Z,5.75
2018-11-03T09:06:36.976Z,6.20
2018-11-03T09:07:41.352Z,5.67
2018-11-03T09:08:45.457Z,6.40
2018-11-03T09:09:49.603Z,6.35
2018-11-03T09:10:53.696Z,5.55
2018-11-03T09:11:57.832Z,6.13
2018-11-03T09:13:01.956Z,5.60
2018-11-03T09:14:12.619Z,6.20
2018-11-03T09:15:16.804Z,5.90
2018-11-03T09:16:20.791Z,6.33
2018-11-03T09:17:24.968Z,6.03
2018-11-03T09:18:29.114Z,6.27
2018-11-03T09:19:33.242Z,6.35
2018-11-03T09:20:37.300Z,6.50
2018-11-03T09:21:41.507Z,6.53
2018-11-03T09:22:45.794Z,6.17
2018-11-03T09:23:49.789Z,6.42
2018-11-03T09:24:53.844Z,6.35
2018-11-03T09:25:57.931Z,6.10
2018-11-03T09:27:02.055Z,5.67
2018-11-03T09:28:06.361Z,6.70
2018-11-03T09:29:10.463Z,5.90
2018-11-03T09:30:16.960Z,6.10
2018-11-03T09:31:21.232Z,6.20
2018-11-03T09:32:25.375Z,5.90
2018-11-03T09:33:29.605Z,6.27
2018-11-03T09:34:33.734Z,6.12
2018-11-03T09:35:37.812Z,5.93
2018-11-03T09:36:42.102Z,5.67
2018-11-03T09:37:46.255Z,6.07
2018-11-03T09:38:50.418Z,5.87
2018-11-03T09:39:54.533Z,5.70
2018-11-03T09:40:58.629Z,6.17
2018-11-03T09:42:02.767Z,6.10
2018-11-03T09:43:07.318Z,5.90
2018-11-03T09:44:11.494Z,5.65
2018-11-03T09:45:17.268Z,6.22
2018-11-03T09:46:21.371Z,6.00
2018-11-03T09:47:25.546Z,6.00
2018-11-03T09:48:29.597Z,5.95
2018-11-03T09:49:34.290Z,6.20
2018-11-03T09:50:38.557Z,6.40
2018-11-03T09:51:42.566Z,5.87
2018-11-03T09:52:46.677Z,6.07
2018-11-03T09:53:50.838Z,5.92
2018-11-03T09:54:55.333Z,6.70
2018-11-03T09:55:59.423Z,6.80
2018-11-03T09:57:03.583Z,6.10
2018-11-03T09:58:07.738Z,6.17
2018-11-03T09:59:11.872Z,6.03
2018-11-03T10:00:17.275Z,6.50
2018-11-03T10:01:21.396Z,6.10
2018-11-03T10:02:25.468Z,6.67
2018-11-03T10:03:29.713Z,6.53
2018-11-03T10:04:33.795Z,6.15
2018-11-03T10:05:37.882Z,6.58
2018-11-03T10:06:42.303Z,6.70
2018-11-03T10:07:46.461Z,6.45
2018-11-03T10:08:50.861Z,6.47
2018-11-03T10:09:55.096Z,6.15
2018-11-03T10:10:59.175Z,6.60
2018-11-03T10:12:03.401Z,6.27
2018-11-03T10:13:08.614Z,6.70
2018-11-03T10:14:12.761Z,6.20
2018-11-03T10:15:18.236Z,6.45
2018-11-03T10:16:22.487Z,6.53
2018-11-03T10:17:26.676Z,6.83
2018-11-03T10:18:30.956Z,6.40
2018-11-03T10:19:34.996Z,6.70
2018-11-03T10:20:39.214Z,6.80
2018-11-03T10:21:43.470Z,6.67
2018-11-03T10:22:47.722Z,6.53
2018-11-03T10:23:52.069Z,6.40
2018-11-03T10:24:56.190Z,6.28
2018-11-03T10:26:00.372Z,5.83
2018-11-03T10:27:04.653Z,6.30
2018-11-03T10:28:08.785Z,7.13
2018-11-03T10:29:13.183Z,6.80
2018-11-03T10:30:18.200Z,6.30
2018-11-03T10:31:22.384Z,6.83
2018-11-03T10:32:26.812Z,6.60
2018-11-03T10:33:31.057Z,6.72
2018-11-03T10:34:35.187Z,7.47
2018-11-03T10:35:39.398Z,7.00
2018-11-03T10:36:43.512Z,7.17
2018-11-03T10:37:47.683Z,7.62
2018-11-03T10:38:51.836Z,7.37
2018-11-03T10:39:55.954Z,7.37
2018-11-03T10:41:00.160Z,7.60
2018-11-03T10:42:04.589Z,7.87
2018-11-03T10:43:09.326Z,7.00
2018-11-03T10:44:13.658Z,7.25
2018-11-03T10:45:18.025Z,7.83
2018-11-03T10:46:22.433Z,7.35
2018-11-03T10:47:26.697Z,6.72
2018-11-03T10:48:31.030Z,7.50
2018-11-03T10:49:35.119Z,6.93
2018-11-03T10:50:39.229Z,7.17
2018-11-03T10:51:43.389Z,9.47
2018-11-03T10:52:47.943Z,9.40
2018-11-03T10:53:52.487Z,12.23
2018-11-03T10:54:56.629Z,14.85
2018-11-03T10:56:00.901Z,14.47
2018-11-03T10:57:05.254Z,15.03
2018-11-03T10:58:09.387Z,11.75
2018-11-03T10:59:13.424Z,11.50
2018-11-03T11:00:24.506Z,10.43
2018-11-03T11:01:34.199Z,9.60
2018-11-03T11:02:43.977Z,8.95
2018-11-03T11:03:53.379Z,9.07
2018-11-03T11:05:02.873Z,8.55
2018-11-03T11:06:12.357Z,8.13
2018-11-03T11:07:21.567Z,8.13
2018-11-03T11:08:31.393Z,8.87
2018-11-03T11:09:43.784Z,8.80
2018-11-03T11:10:53.151Z,7.83
2018-11-03T11:12:02.788Z,8.87
2018-11-03T11:13:24.449Z,9.07
2018-11-03T11:14:28.680Z,7.40
2018-11-03T11:15:32.923Z,7.60
2018-11-03T11:16:37.571Z,7.67
2018-11-03T11:17:41.720Z,8.10
2018-11-03T11:18:45.915Z,7.72
2018-11-03T11:19:50.370Z,7.90
2018-11-03T11:20:54.728Z,7.97
2018-11-03T11:21:59.000Z,8.85
2018-11-03T11:23:03.116Z,8.40
2018-11-03T11:24:07.517Z,8.98
2018-11-03T11:25:12.136Z,7.83
2018-11-03T11:26:16.426Z,7.93
2018-11-03T11:27:20.740Z,8.47
2018-11-03T11:28:25.026Z,8.63
2018-11-03T11:29:29.405Z,8.77
2018-11-03T11:30:37.850Z,8.60
2018-11-03T11:31:41.964Z,8.33
2018-11-03T11:32:47.428Z,9.23
2018-11-03T11:33:51.506Z,9.25
2018-11-03T11:34:55.552Z,8.83
2018-11-03T11:36:00.026Z,8.45
2018-11-03T11:37:04.314Z,9.30
2018-11-03T11:38:09.300Z,8.20
2018-11-03T11:39:13.357Z,9.53
2018-11-03T11:40:17.559Z,8.80
2018-11-03T11:41:21.652Z,9.00
2018-11-03T11:42:26.696Z,9.10
2018-11-03T11:43:31.584Z,9.13
2018-11-03T11:44:35.709Z,8.40
2018-11-03T11:45:40.416Z,9.33
2018-11-03T11:46:44.697Z,8.57
2018-11-03T11:47:48.810Z,9.17
2018-11-03T11:48:53.250Z,8.88
2018-11-03T11:49:57.593Z,8.70
2018-11-03T11:51:01.963Z,8.50
2018-11-03T11:52:06.220Z,8.73
2018-11-03T11:53:10.360Z,8.83
2018-11-03T11:54:14.473Z,8.85
2018-11-03T11:55:19.708Z,8.78
2018-11-03T11:56:23.784Z,9.08
2018-11-03T11:57:27.942Z,8.80
2018-11-03T11:58:32.128Z,8.43
2018-11-03T11:59:36.382Z,9.63
2018-11-03T12:00:40.696Z,9.17
2018-11-03T12:01:44.617Z,8.83
2018-11-03T12:02:48.664Z,8.93
2018-11-03T12:03:52.774Z,9.57
2018-11-03T12:04:56.845Z,8.77
2018-11-03T12:06:01.109Z,8.73
2018-11-03T12:07:05.180Z,9.73
2018-11-03T12:08:09.320Z,9.68
2018-11-03T12:09:13.440Z,9.10
2018-11-03T12:10:19.364Z,8.73
2018-11-03T12:11:24.253Z,8.70
2018-11-03T12:12:29.014Z,8.65
2018-11-03T12:13:33.294Z,8.73
2018-11-03T12:14:37.729Z,8.78
2018-11-03T12:15:43.031Z,10.60
2018-11-03T12:16:47.367Z,8.53
2018-11-03T12:17:51.588Z,8.83
2018-11-03T12:18:57.172Z,8.58
2018-11-03T12:20:01.459Z,8.53
2018-11-03T12:21:05.900Z,8.37
2018-11-03T12:22:10.434Z,8.48
2018-11-03T12:23:14.947Z,9.13
2018-11-03T12:24:21.710Z,9.13
2018-11-03T12:25:26.589Z,8.50
2018-11-03T12:26:32.739Z,8.83
2018-11-03T12:27:39.800Z,9.47
2018-11-03T12:28:43.991Z,8.73
2018-11-03T12:29:48.521Z,8.95
2018-11-03T12:30:52.769Z,8.38
2018-11-03T12:31:57.099Z,9.30
2018-11-03T12:33:01.453Z,8.33
2018-11-03T12:34:06.097Z,8.75
2018-11-03T12:35:10.592Z,9.25
2018-11-03T12:36:15.583Z,9.45
2018-11-03T12:37:20.436Z,9.58
2018-11-03T12:38:25.488Z,10.33
2018-11-03T12:39:30.006Z,9.93
2018-11-03T12:40:34.365Z,9.57
2018-11-03T12:41:38.543Z,9.43
2018-11-03T12:42:42.792Z,10.03
2018-11-03T12:43:46.988Z,9.53
2018-11-03T12:44:51.156Z,10.40
2018-11-03T12:45:55.303Z,10.45
2018-11-03T12:46:59.579Z,11.05
2018-11-03T12:48:03.872Z,10.90
2018-11-03T12:49:08.047Z,12.03
2018-11-03T12:50:14.849Z,11.63
2018-11-03T12:51:19.182Z,10.68
2018-11-03T12:52:23.506Z,10.50
2018-11-03T12:53:28.362Z,10.50
2018-11-03T12:54:32.514Z,10.00
2018-11-03T12:55:36.895Z,10.20
2018-11-03T12:56:41.012Z,10.77
2018-11-03T12:57:45.390Z,10.70
2018-11-03T12:58:49.611Z,10.20
2018-11-03T12:59:53.824Z,10.23
2018-11-03T13:00:57.988Z,10.72
2018-11-03T13:02:02.124Z,9.73
2018-11-03T13:03:06.308Z,9.90
2018-11-03T13:04:10.603Z,9.90
2018-11-03T13:05:15.131Z,11.13
2018-11-03T13:06:19.222Z,9.98
2018-11-03T13:07:23.448Z,9.33
2018-11-03T13:08:27.478Z,10.20
2018-11-03T13:09:31.570Z,11.00
2018-11-03T13:10:35.786Z,9.95
2018-11-03T13:11:40.517Z,10.40
2018-11-03T13:12:44.753Z,10.55
2018-11-03T13:13:49.094Z,10.25
2018-11-03T13:14:53.336Z,10.23
2018-11-03T13:15:57.695Z,10.60
2018-11-03T13:17:02.070Z,10.93
2018-11-03T13:18:11.706Z,11.67
2018-11-03T13:19:21.755Z,10.60
2018-11-03T13:20:27.904Z,10.32
2018-11-03T13:21:36.141Z,10.80
2018-11-03T13:22:45.810Z,10.47
2018-11-03T13:23:53.557Z,10.13
2018-11-03T13:25:01.576Z,10.75
2018-11-03T13:26:08.937Z,10.60
2018-11-03T13:27:15.655Z,10.90
2018-11-03T13:28:23.493Z,10.40
2018-11-03T13:29:31.514Z,10.10
2018-11-03T13:30:39.208Z,10.60
2018-11-03T13:31:45.922Z,10.97
2018-11-03T13:33:01.313Z,10.48
2018-11-03T13:34:07.080Z,10.53
2018-11-03T13:35:12.843Z,10.43
2018-11-03T13:36:17.472Z,10.58
2018-11-03T13:37:21.953Z,10.45
2018-11-03T13:38:26.192Z,10.53
2018-11-03T13:39:31.003Z,10.60
2018-11-03T13:40:36.037Z,10.38
2018-11-03T13:41:40.527Z,10.33
2018-11-03T13:42:46.323Z,10.17
2018-11-03T13:43:52.633Z,10.50
2018-11-03T13:44:58.524Z,9.63
2018-11-03T13:46:06.215Z,10.90
2018-11-03T13:47:12.453Z,9.33
2018-11-03T13:48:17.447Z,9.88
2018-11-03T13:49:23.962Z,9.73
2018-11-03T13:50:30.809Z,10.67
2018-11-03T13:51:36.667Z,10.30
2018-11-03T13:52:44.027Z,10.18
2018-11-03T13:53:48.843Z,10.08
2018-11-03T13:54:54.629Z,10.75
2018-11-03T13:55:59.799Z,10.63
2018-11-03T13:57:05.585Z,11.12
2018-11-03T13:58:10.662Z,10.88
2018-11-03T13:59:16.514Z,11.07
2018-11-03T14:00:20.963Z,10.50
2018-11-03T14:01:26.368Z,11.27
2018-11-03T14:02:31.222Z,10.80
2018-11-03T14:03:35.630Z,10.23
2018-11-03T14:04:40.609Z,10.87
2018-11-03T14:05:46.465Z,9.20
2018-11-03T14:06:51.887Z,10.63
2018-11-03T14:07:58.231Z,10.13
2018-11-03T14:09:04.938Z,10.63
2018-11-03T14:10:13.683Z,9.35
2018-11-03T14:11:18.333Z,9.85
2018-11-03T14:12:22.808Z,9.40
2018-11-03T14:13:27.653Z,9.55
2018-11-03T14:14:32.289Z,9.27
2018-11-03T14:15:37.622Z,10.60